Time;durP1;ratioP1;P1;durP2;ratioP2;P2;SDS_P1;SDS_P2;PMS_P1;PMS_P2;Temp;Humidity;BMP_temperature;BMP_pressure;BME280_temperature;BME280_humidity;BME280_pressure;Samples;Min_cycle;Max_cycle;Signal;HPM_P1;HPM_P2
2021/10/03 00:00:39;;;;;;;4.78;1.35;;;;;;;19.01;50.21;98491.72;5012497;28;20030;-61
2021/10/03 00:03:10;;;;;;;7.03;1.60;;;;;;;18.96;50.27;98500.47;5011025;28;20037;-70
2021/10/03 00:05:37;;;;;;;7.10;1.55;;;;;;;18.93;50.06;98487.66;5021880;28;20037;-63
2021/10/03 00:08:05;;;;;;;6.78;1.63;;;;;;;18.94;50.34;98491.13;5013082;28;20038;-62
2021/10/03 00:10:31;;;;;;;10.38;1.52;;;;;;;18.95;50.05;98498.84;5018280;28;20116;-62
2021/10/03 00:13:03;;;;;;;7.68;1.55;;;;;;;18.98;50.82;98494.91;5014340;28;20167;-59
2021/10/03 00:15:31;;;;;;;7.53;1.35;;;;;;;18.99;50.24;98494.63;5008788;28;21868;-60
2021/10/03 00:17:57;;;;;;;5.68;1.30;;;;;;;19.01;50.23;98524.41;5012785;28;20049;-59
2021/10/03 00:20:23;;;;;;;6.47;0.93;;;;;;;18.98;50.25;98487.72;5013187;28;20403;-63
2021/10/03 00:22:48;;;;;;;8.80;1.45;;;;;;;18.95;49.78;98488.22;4997612;28;20103;-60
2021/10/03 00:25:14;;;;;;;6.93;1.65;;;;;;;18.97;50.25;98488.78;5017355;28;20479;-60
2021/10/03 00:27:44;;;;;;;10.88;1.42;;;;;;;18.95;50.47;98474.94;5016501;28;20410;-59
2021/10/03 00:30:13;;;;;;;7.32;1.23;;;;;;;18.95;50.02;98484.75;5014464;28;20029;-64
2021/10/03 00:32:38;;;;;;;6.90;1.60;;;;;;;18.95;50.99;98484.75;4983367;28;20046;-63
2021/10/03 00:35:04;;;;;;;6.65;1.48;;;;;;;18.96;50.56;98481.84;5008940;28;20041;-60
2021/10/03 00:37:30;;;;;;;10.63;1.48;;;;;;;18.97;50.57;98480.00;5015037;28;20054;-60
2021/10/03 00:39:55;;;;;;;6.82;1.00;;;;;;;19.00;50.83;98476.84;4994465;28;20034;-62
2021/10/03 00:42:21;;;;;;;5.63;1.10;;;;;;;19.01;51.02;98487.22;5011641;28;20082;-59
2021/10/03 00:44:47;;;;;;;7.25;1.10;;;;;;;19.00;50.53;98476.84;4999264;28;20105;-67
2021/10/03 00:47:13;;;;;;;8.63;1.60;;;;;;;18.99;50.15;98481.34;5009664;28;20842;-59
2021/10/03 00:49:39;;;;;;;7.25;1.50;;;;;;;18.95;49.66;98482.09;5021406;28;20385;-62
2021/10/03 00:52:07;;;;;;;9.05;1.15;;;;;;;18.93;49.63;98470.91;5029749;28;20399;-61
2021/10/03 00:54:34;;;;;;;7.28;1.40;;;;;;;18.92;49.12;98478.06;5009935;28;20033;-65
2021/10/03 00:57:01;;;;;;;6.22;1.20;;;;;;;18.88;48.58;98465.53;5008070;28;20070;-62
2021/10/03 00:59:27;;;;;;;2.50;0.80;;;;;;;18.81;48.28;98473.72;5008518;28;20030;-60
2021/10/03 01:01:53;;;;;;;8.82;1.13;;;;;;;18.75;47.98;98469.38;4992021;28;20143;-63
2021/10/03 01:04:18;;;;;;;7.10;1.58;;;;;;;18.73;48.06;98472.28;5009101;28;20394;-62
2021/10/03 01:06:44;;;;;;;6.55;1.50;;;;;;;18.73;47.97;98463.50;5030754;28;20410;-59
2021/10/03 01:09:10;;;;;;;6.30;1.00;;;;;;;18.74;48.04;98459.81;5030683;28;20113;-62
2021/10/03 01:11:36;;;;;;;4.55;1.00;;;;;;;18.74;48.15;98457.94;5010623;28;20083;-59
2021/10/03 01:14:01;;;;;;;5.13;1.10;;;;;;;18.76;48.61;98457.69;5022089;28;20065;-60
2021/10/03 01:16:27;;;;;;;11.88;1.30;;;;;;;18.80;48.76;98458.84;4995436;28;20071;-62
2021/10/03 01:18:55;;;;;;;6.05;1.35;;;;;;;18.84;48.68;98450.09;4992351;28;20045;-64
2021/10/03 01:21:21;;;;;;;8.70;1.20;;;;;;;18.88;48.58;98465.53;4988897;28;20073;-60
2021/10/03 01:23:47;;;;;;;8.50;1.30;;;;;;;18.88;48.69;98455.72;4992669;28;20125;-63
2021/10/03 01:26:12;;;;;;;5.53;0.98;;;;;;;18.87;48.56;98446.16;4990512;28;20128;-63
2021/10/03 01:28:38;;;;;;;4.88;1.02;;;;;;;18.87;48.68;98450.66;4994577;28;20501;-62
2021/10/03 01:31:06;;;;;;;5.78;1.20;;;;;;;18.88;48.51;98437.13;5012889;28;20037;-59
2021/10/03 01:33:32;;;;;;;8.02;1.10;;;;;;;18.89;49.25;98449.34;5031455;28;20061;-60
2021/10/03 01:35:58;;;;;;;6.63;1.20;;;;;;;18.90;49.15;98432.34;5030946;28;20112;-63
2021/10/03 01:38:24;;;;;;;6.07;1.02;;;;;;;18.89;48.64;98436.06;5030150;28;20569;-69
2021/10/03 01:40:50;;;;;;;4.75;1.05;;;;;;;18.88;48.81;98423.03;4997311;28;20368;-59
2021/10/03 01:43:17;;;;;;;6.55;0.90;;;;;;;18.87;48.91;98424.09;5030488;28;20480;-59
2021/10/03 01:45:42;;;;;;;7.10;1.20;;;;;;;18.86;48.91;98415.31;5011699;28;20709;-62
2021/10/03 01:48:10;;;;;;;9.10;1.23;;;;;;;18.85;48.57;98416.38;5027193;28;20041;-64
2021/10/03 01:50:58;;;;;;;8.90;1.45;;;;;;;18.80;48.29;98411.03;5025425;28;20033;-60
2021/10/03 01:53:30;;;;;;;7.40;1.10;;;;;;;18.76;48.29;98392.09;5014238;28;20147;-60
2021/10/03 01:55:58;;;;;;;7.63;1.20;;;;;;;18.73;48.21;98399.78;5028129;28;20056;-70
2021/10/03 01:58:26;;;;;;;5.93;1.13;;;;;;;18.70;47.77;98387.81;4993235;28;20046;-62
2021/10/03 02:00:58;;;;;;;4.72;0.95;;;;;;;18.69;48.02;98385.41;4988650;28;20054;-63
2021/10/03 02:03:23;;;;;;;4.15;0.80;;;;;;;18.70;48.02;98382.50;4987272;28;20031;-59
2021/10/03 02:05:49;;;;;;;3.97;0.82;;;;;;;18.72;47.98;98379.59;4990633;28;20079;-60
2021/10/03 02:08:16;;;;;;;4.88;0.85;;;;;;;18.72;48.00;98376.94;4990559;28;20031;-59
2021/10/03 02:10:44;;;;;;;13.43;1.98;;;;;;;18.72;47.50;98376.94;4990940;28;20043;-60
2021/10/03 02:13:10;;;;;;;4.03;1.08;;;;;;;18.69;47.68;98372.91;4989970;28;20034;-60
2021/10/03 02:15:38;;;;;;;23.45;2.40;;;;;;;18.64;48.01;98380.03;4995014;28;20034;-59
2021/10/03 02:18:05;;;;;;;7.13;1.55;;;;;;;18.61;47.73;98375.16;4989649;28;20085;-60
2021/10/03 02:20:31;;;;;;;5.47;1.30;;;;;;;18.61;47.91;98375.97;4990654;28;20061;-65
2021/10/03 02:22:57;;;;;;;4.10;1.10;;;;;;;18.60;47.92;98378.88;4989165;28;20484;-66
2021/10/03 02:25:22;;;;;;;9.38;1.20;;;;;;;18.61;47.74;98375.16;4996282;28;20049;-64
2021/10/03 02:27:48;;;;;;;5.07;1.00;;;;;;;18.60;48.15;98369.06;5004461;28;20108;-65
2021/10/03 02:30:14;;;;;;;7.72;1.02;;;;;;;18.64;47.99;98369.41;4989574;28;20504;-61
2021/10/03 02:32:39;;;;;;;5.25;1.30;;;;;;;18.63;47.55;98357.16;4999292;28;20038;-62
2021/10/03 02:35:07;;;;;;;5.15;1.08;;;;;;;18.64;47.41;98374.72;4998247;28;20041;-62
2021/10/03 02:37:33;;;;;;;3.95;0.90;;;;;;;18.63;47.67;98354.50;4993958;28;20061;-63
2021/10/03 02:39:59;;;;;;;9.80;1.30;;;;;;;18.65;47.75;98355.09;4989085;28;20038;-64
2021/10/03 02:42:24;;;;;;;8.45;1.05;;;;;;;18.68;47.58;98347.41;4988734;28;20658;-61
2021/10/03 02:44:50;;;;;;;8.25;1.42;;;;;;;18.71;48.16;98344.25;4988429;28;20439;-60
2021/10/03 02:47:15;;;;;;;4.80;1.38;;;;;;;18.75;48.13;98352.53;4989421;28;20038;-61
2021/10/03 02:49:43;;;;;;;3.42;1.13;;;;;;;18.82;48.19;98350.47;4987717;28;20092;-62
2021/10/03 02:52:10;;;;;;;5.72;1.70;;;;;;;18.88;48.57;98348.66;4988211;28;20050;-62
2021/10/03 02:54:36;;;;;;;4.30;1.10;;;;;;;18.92;48.61;98344.44;4988510;28;20116;-64
2021/10/03 02:57:04;;;;;;;8.27;1.27;;;;;;;18.96;48.43;98356.19;4985578;28;20061;-61
2021/10/03 02:59:30;;;;;;;5.35;1.20;;;;;;;18.98;48.71;98344.25;4985712;28;20176;-63
2021/10/03 03:01:55;;;;;;;4.50;1.10;;;;;;;19.00;48.74;98336.84;4987774;28;20125;-60
2021/10/03 03:04:21;;;;;;;9.52;1.90;;;;;;;19.03;49.04;98338.19;4996916;28;20057;-61
2021/10/03 03:06:46;;;;;;;7.55;2.70;;;;;;;19.03;48.51;98331.00;5006766;28;20046;-62
2021/10/03 03:09:12;;;;;;;10.95;3.25;;;;;;;19.04;48.76;98329.94;5006576;28;20045;-61
2021/10/03 03:11:37;;;;;;;5.45;2.10;;;;;;;19.04;48.52;98334.47;5000697;28;20117;-64
2021/10/03 03:14:03;;;;;;;9.25;2.40;;;;;;;19.05;48.46;98333.41;4988409;28;20456;-61
2021/10/03 03:16:28;;;;;;;13.02;2.75;;;;;;;19.05;48.81;98341.38;4990681;28;20395;-63
2021/10/03 03:18:54;;;;;;;5.22;2.00;;;;;;;19.05;48.70;98333.41;4989604;28;20181;-61
2021/10/03 03:21:20;;;;;;;11.68;2.50;;;;;;;19.05;48.67;98323.56;4990609;28;20121;-63
2021/10/03 03:23:45;;;;;;;5.13;1.50;;;;;;;19.06;48.41;98319.06;4988642;28;20034;-61
2021/10/03 03:26:11;;;;;;;5.90;1.98;;;;;;;19.07;48.58;98320.66;4989812;28;20188;-60
2021/10/03 03:28:36;;;;;;;7.00;1.70;;;;;;;19.07;48.83;98305.53;4989760;28;20034;-59
2021/10/03 03:31:02;;;;;;;7.43;1.45;;;;;;;19.08;48.95;98312.44;4985448;28;20084;-60
2021/10/03 03:33:27;;;;;;;5.40;1.50;;;;;;;19.10;49.28;98305.03;4990719;28;20038;-63
2021/10/03 03:35:53;;;;;;;8.30;1.67;;;;;;;19.11;49.60;98285.38;5011625;28;20041;-60
2021/10/03 03:38:19;;;;;;;6.93;1.40;;;;;;;19.12;49.44;98289.63;5002575;28;20132;-62
2021/10/03 03:40:45;;;;;;;5.68;1.20;;;;;;;19.14;49.97;98274.25;4993303;28;20041;-60
2021/10/03 03:43:11;;;;;;;11.15;2.28;;;;;;;19.15;49.93;98270.53;4993365;28;20474;-60
2021/10/03 03:45:36;;;;;;;10.38;2.38;;;;;;;19.17;50.48;98264.16;4993323;28;20038;-60
2021/10/03 03:48:02;;;;;;;5.32;1.33;;;;;;;19.18;50.57;98266.56;5006599;28;20068;-62
2021/10/03 03:50:30;;;;;;;4.40;1.40;;;;;;;19.19;50.47;98265.50;5011963;28;20053;-63
2021/10/03 03:52:56;;;;;;;8.35;1.58;;;;;;;19.21;50.39;98270.56;5002907;28;20542;-60
2021/10/03 03:55:22;;;;;;;5.40;1.50;;;;;;;19.21;50.51;98259.91;4993342;28;20061;-60
2021/10/03 03:57:49;;;;;;;9.65;1.60;;;;;;;19.21;50.82;98267.88;5014067;28;20660;-61
2021/10/03 04:00:15;;;;;;;5.03;1.55;;;;;;;19.21;50.84;98257.25;5032177;28;20061;-60
2021/10/03 04:02:40;;;;;;;4.88;1.20;;;;;;;19.23;50.58;98260.47;5014988;28;20052;-60
2021/10/03 04:05:06;;;;;;;8.85;2.17;;;;;;;19.22;50.85;98261.50;5032368;28;20041;-60
2021/10/03 04:07:32;;;;;;;136.70;39.50;;;;;;;19.22;50.79;98262.31;5032705;28;20037;-59
2021/10/03 04:09:57;;;;;;;41.65;10.65;;;;;;;19.23;50.79;98252.50;5020500;28;20038;-60
2021/10/03 04:12:23;;;;;;;18.95;6.03;;;;;;;19.22;50.83;98262.31;5011018;28;20574;-59
2021/10/03 04:14:48;;;;;;;20.83;5.72;;;;;;;19.24;51.12;98264.72;5012987;28;20038;-60
2021/10/03 04:17:14;;;;;;;16.70;5.00;;;;;;;19.24;51.24;98270.84;4995774;28;20042;-58
2021/10/03 04:19:39;;;;;;;17.77;4.70;;;;;;;19.24;51.33;98262.84;5012720;28;20032;-59
2021/10/03 04:22:05;;;;;;;15.10;4.43;;;;;;;19.24;51.64;98262.06;5024608;28;20132;-58
2021/10/03 04:24:30;;;;;;;17.40;4.10;;;;;;;19.24;51.43;98267.38;5032237;28;20037;-59
2021/10/03 04:26:56;;;;;;;12.60;3.55;;;;;;;19.24;51.92;98270.84;5032287;28;20215;-60
2021/10/03 04:29:21;;;;;;;14.45;3.88;;;;;;;19.23;51.57;98282.53;5013863;28;20045;-60
2021/10/03 04:31:47;;;;;;;11.35;3.40;;;;;;;19.22;51.97;98278.25;5032033;28;20554;-60
2021/10/03 04:34:12;;;;;;;16.35;3.58;;;;;;;19.22;51.71;98288.09;5001474;28;20096;-59
2021/10/03 04:36:37;;;;;;;10.23;2.92;;;;;;;19.20;52.10;98288.34;5012697;28;20042;-61
2021/10/03 04:39:04;;;;;;;10.13;3.35;;;;;;;19.20;52.07;98301.63;5012258;28;20394;-59
2021/10/03 04:41:30;;;;;;;12.23;2.90;;;;;;;19.19;51.77;98301.91;5012355;28;20090;-59
2021/10/03 04:43:55;;;;;;;10.63;2.63;;;;;;;19.18;52.15;98313.59;4994447;28;20045;-59
2021/10/03 04:46:21;;;;;;;9.27;2.60;;;;;;;19.18;52.09;98302.97;5013210;28;20065;-59
2021/10/03 04:48:46;;;;;;;11.30;3.42;;;;;;;19.17;51.77;98306.66;4994879;28;20391;-59
2021/10/03 04:51:12;;;;;;;7.60;2.50;;;;;;;19.17;51.83;98306.66;4994303;28;20142;-59
2021/10/03 04:53:37;;;;;;;8.45;2.63;;;;;;;19.14;51.54;98302.66;5012357;28;20037;-59
2021/10/03 04:56:03;;;;;;;9.77;2.35;;;;;;;19.12;52.17;98316.22;5012470;28;20102;-59
2021/10/03 04:58:28;;;;;;;8.52;2.33;;;;;;;19.12;51.82;98331.34;5027199;28;20049;-60
2021/10/03 05:00:54;;;;;;;8.65;2.75;;;;;;;19.11;51.83;98319.94;5031419;28;20033;-59
2021/10/03 05:03:19;;;;;;;6.70;1.90;;;;;;;19.11;51.61;98333.22;5013999;28;20048;-58
2021/10/03 05:05:45;;;;;;;6.95;2.13;;;;;;;19.09;51.40;98329.19;5014282;28;20137;-59
2021/10/03 05:08:12;;;;;;;7.90;2.35;;;;;;;19.09;51.21;98345.13;5031727;28;20332;-59
2021/10/03 05:10:39;;;;;;;8.15;2.13;;;;;;;19.09;51.35;98337.16;5014498;28;20062;-61
2021/10/03 05:13:05;;;;;;;9.40;2.00;;;;;;;19.08;51.45;98339.00;5011758;28;20047;-59
2021/10/03 05:15:30;;;;;;;9.65;2.30;;;;;;;19.07;51.05;98347.25;5011261;28;20459;-58
2021/10/03 05:17:56;;;;;;;6.55;2.00;;;;;;;19.06;51.00;98338.47;5012023;28;20034;-59
2021/10/03 05:20:21;;;;;;;8.65;1.60;;;;;;;19.05;51.10;98346.69;5011829;28;20034;-58
2021/10/03 05:22:47;;;;;;;7.65;2.20;;;;;;;19.04;51.08;98340.56;5013681;28;20040;-60
2021/10/03 05:25:12;;;;;;;9.18;1.90;;;;;;;19.04;51.36;98353.06;5030869;28;20037;-59
2021/10/03 05:27:37;;;;;;;7.57;1.75;;;;;;;19.04;50.93;98345.88;5011442;28;20695;-62
2021/10/03 05:30:04;;;;;;;7.38;1.63;;;;;;;19.04;51.15;98351.22;5011381;28;20034;-59
2021/10/03 05:32:29;;;;;;;7.97;1.92;;;;;;;19.04;51.12;98347.75;5011401;28;20121;-59
2021/10/03 05:34:55;;;;;;;6.93;2.22;;;;;;;19.03;51.18;98346.16;5011749;28;20491;-59
2021/10/03 05:37:20;;;;;;;8.07;1.85;;;;;;;19.03;51.16;98351.47;5028394;28;20463;-59
2021/10/03 05:39:46;;;;;;;6.55;1.83;;;;;;;19.02;50.76;98358.63;5031680;28;20033;-59
2021/10/03 05:42:11;;;;;;;4.75;2.13;;;;;;;19.01;51.10;98362.34;5030615;28;20045;-59
2021/10/03 05:44:37;;;;;;;4.22;1.73;;;;;;;19.01;50.75;98361.53;5030715;28;20487;-59
2021/10/03 05:47:03;;;;;;;4.90;1.30;;;;;;;19.01;50.70;98367.66;5031177;28;20045;-62
2021/10/03 05:49:28;;;;;;;5.32;1.42;;;;;;;19.01;50.90;98369.50;5013149;28;20787;-59
2021/10/03 05:51:54;;;;;;;7.00;1.60;;;;;;;19.00;50.60;98365.25;4993582;28;20395;-59
2021/10/03 05:54:19;;;;;;;4.60;1.50;;;;;;;18.99;51.15;98376.94;5010613;28;20030;-58
2021/10/03 05:56:45;;;;;;;4.85;1.48;;;;;;;18.99;50.60;98377.75;4992846;28;20064;-59
2021/10/03 05:59:12;;;;;;;4.70;1.70;;;;;;;18.99;51.03;98387.56;5010063;28;20137;-59
2021/10/03 06:01:41;;;;;;;4.65;1.27;;;;;;;18.99;50.78;98396.34;5029070;28;20053;-61
2021/10/03 06:04:08;;;;;;;5.13;1.42;;;;;;;18.99;51.02;98399.00;5013026;28;20215;-59
2021/10/03 06:06:33;;;;;;;4.40;1.17;;;;;;;18.98;50.82;98388.63;5030680;28;20052;-61
2021/10/03 06:08:59;;;;;;;7.95;1.73;;;;;;;18.98;50.95;98399.25;5030128;28;20046;-59
2021/10/03 06:11:25;;;;;;;5.53;1.00;;;;;;;18.97;50.57;98406.41;5029594;28;20061;-58
2021/10/03 06:13:50;;;;;;;4.82;1.33;;;;;;;18.98;50.60;98413.34;5010282;28;20062;-60
2021/10/03 06:16:17;;;;;;;4.53;1.50;;;;;;;18.97;50.80;98411.72;5010491;28;20038;-59
2021/10/03 06:18:42;;;;;;;3.10;1.10;;;;;;;18.97;50.67;98403.75;5010840;28;20065;-59
2021/10/03 06:21:15;;;;;;;5.57;1.58;;;;;;;18.96;50.70;98412.78;4993266;28;20068;-60
2021/10/03 06:23:44;;;;;;;3.05;1.27;;;;;;;18.96;50.88;98415.44;5011056;28;20045;-59
2021/10/03 06:26:11;;;;;;;4.60;1.10;;;;;;;18.97;50.61;98419.69;5030568;28;20033;-59
2021/10/03 06:28:37;;;;;;;3.72;1.20;;;;;;;18.97;50.77;98418.91;5012250;28;20449;-60
2021/10/03 06:31:04;;;;;;;2.97;1.02;;;;;;;18.96;50.97;98417.28;5012122;28;20092;-59
2021/10/03 06:33:31;;;;;;;3.85;1.23;;;;;;;18.97;51.14;98421.56;5030024;28;20033;-59
2021/10/03 06:35:57;;;;;;;3.28;1.20;;;;;;;18.96;51.12;98430.59;5026033;28;20030;-59
2021/10/03 06:38:22;;;;;;;4.28;1.30;;;;;;;18.96;50.83;98434.03;5010184;28;20087;-59
2021/10/03 06:40:47;;;;;;;3.85;1.42;;;;;;;18.96;50.68;98433.25;5010547;28;20046;-60
2021/10/03 06:43:13;;;;;;;5.35;1.40;;;;;;;18.95;50.71;98437.75;5009622;28;20095;-61
2021/10/03 06:45:38;;;;;;;4.03;1.42;;;;;;;18.96;50.70;98447.31;5009833;28;20041;-62
2021/10/03 06:48:04;;;;;;;3.63;1.33;;;;;;;18.95;51.06;98443.06;5018110;28;20037;-61
2021/10/03 06:50:30;;;;;;;3.08;1.42;;;;;;;18.95;50.91;98442.25;5029505;28;20044;-60
2021/10/03 06:52:55;;;;;;;3.72;1.17;;;;;;;18.96;50.75;98443.88;5012430;28;20030;-61
2021/10/03 06:55:21;;;;;;;1.63;0.90;;;;;;;18.95;50.97;98451.03;5029450;28;20121;-60
2021/10/03 06:57:46;;;;;;;3.08;0.98;;;;;;;18.94;50.75;98452.09;4991709;28;20046;-60
2021/10/03 07:00:12;;;;;;;3.40;0.93;;;;;;;18.95;50.75;98464.31;4992110;28;20042;-61
2021/10/03 07:02:40;;;;;;;3.00;0.90;;;;;;;18.95;50.76;98458.19;5009832;28;20512;-61
2021/10/03 07:05:06;;;;;;;3.13;0.80;;;;;;;18.95;50.83;98466.16;5010049;28;20084;-60
2021/10/03 07:07:32;;;;;;;4.03;1.10;;;;;;;18.95;50.71;98469.63;5008837;28;20030;-60
2021/10/03 07:09:57;;;;;;;3.45;0.90;;;;;;;18.94;50.73;98473.34;5018666;28;20234;-60
2021/10/03 07:12:22;;;;;;;3.90;0.90;;;;;;;18.94;50.61;98478.66;5029066;28;20041;-63
2021/10/03 07:14:48;;;;;;;2.38;0.90;;;;;;;18.95;50.93;98476.78;5011137;28;20037;-61
2021/10/03 07:17:14;;;;;;;3.83;1.30;;;;;;;18.94;50.57;98477.84;5029705;28;20065;-60
2021/10/03 07:19:40;;;;;;;4.05;1.20;;;;;;;18.93;50.77;98477.03;5029552;28;20033;-61
2021/10/03 07:22:07;;;;;;;2.35;1.08;;;;;;;18.94;50.93;98491.13;5022100;28;20061;-60
2021/10/03 07:24:34;;;;;;;4.07;1.15;;;;;;;18.94;50.62;98496.44;5009532;28;20137;-61
2021/10/03 07:27:00;;;;;;;3.08;0.80;;;;;;;18.93;50.91;98487.66;5009490;28;20033;-60
2021/10/03 07:29:25;;;;;;;3.22;0.88;;;;;;;18.94;50.82;98497.25;5009253;28;20041;-60
2021/10/03 07:31:51;;;;;;;5.07;1.10;;;;;;;18.94;50.52;98501.75;5009946;28;20726;-60
2021/10/03 07:34:16;;;;;;;2.13;0.70;;;;;;;18.94;50.52;98502.56;5019465;28;20053;-63
2021/10/03 07:36:42;;;;;;;3.83;0.82;;;;;;;18.95;50.83;98509.47;5029561;28;20036;-61
2021/10/03 07:39:08;;;;;;;3.33;1.00;;;;;;;18.96;50.57;98510.28;5029103;28;20025;-63
2021/10/03 07:41:34;;;;;;;2.70;1.00;;;;;;;18.96;51.02;98515.59;5029451;28;20060;-61
2021/10/03 07:43:59;;;;;;;3.92;1.10;;;;;;;18.96;50.75;98518.25;5028538;28;20140;-60
2021/10/03 07:46:25;;;;;;;2.78;1.02;;;;;;;18.96;50.87;98526.22;5017028;28;20050;-60
2021/10/03 07:48:52;;;;;;;3.10;0.90;;;;;;;18.95;50.72;98521.97;5009333;28;20034;-63
2021/10/03 07:51:18;;;;;;;3.90;1.00;;;;;;;18.95;51.00;98512.13;5020036;28;20465;-65
2021/10/03 07:53:44;;;;;;;2.55;0.95;;;;;;;18.96;50.79;98519.06;5028944;28;20030;-60
2021/10/03 07:56:09;;;;;;;3.78;0.90;;;;;;;18.95;50.83;98525.41;5029321;28;20056;-60
2021/10/03 07:58:35;;;;;;;3.45;1.02;;;;;;;18.96;50.83;98526.22;4997209;28;20161;-62
2021/10/03 08:01:00;;;;;;;2.95;0.85;;;;;;;18.96;50.72;98531.53;5009114;28;20088;-61
2021/10/03 08:03:26;;;;;;;5.13;1.08;;;;;;;18.96;50.87;98539.50;5009233;28;20034;-62
2021/10/03 08:05:51;;;;;;;3.22;0.85;;;;;;;18.96;50.66;98545.63;5009188;28;20525;-61
2021/10/03 08:08:17;;;;;;;3.70;0.75;;;;;;;18.97;50.82;98543.78;5000253;28;20392;-62
2021/10/03 08:10:43;;;;;;;2.90;0.80;;;;;;;18.97;50.77;98533.94;5015328;28;20310;-61
2021/10/03 08:13:12;;;;;;;6.05;0.82;;;;;;;18.97;50.94;98544.56;5009158;28;20549;-62
2021/10/03 08:15:39;;;;;;;2.88;0.80;;;;;;;18.97;51.02;98546.44;5008596;28;20061;-62
2021/10/03 08:18:05;;;;;;;3.80;1.08;;;;;;;18.97;50.97;98557.84;5009233;28;20029;-60
2021/10/03 08:20:31;;;;;;;3.22;0.80;;;;;;;18.97;50.70;98565.81;4978242;28;20495;-61
2021/10/03 08:22:56;;;;;;;2.45;0.75;;;;;;;18.97;51.10;98560.50;4995214;28;20046;-61
2021/10/03 08:25:22;;;;;;;3.97;1.00;;;;;;;18.97;50.88;98584.44;4978744;28;20038;-62
2021/10/03 08:27:47;;;;;;;3.17;0.80;;;;;;;18.98;50.98;98579.91;5012622;28;20811;-61
2021/10/03 08:30:13;;;;;;;3.78;0.80;;;;;;;18.98;51.03;98577.25;5012449;28;20380;-61
2021/10/03 08:32:40;;;;;;;3.10;0.73;;;;;;;18.99;50.92;98587.63;4993470;28;20068;-59
2021/10/03 08:35:07;;;;;;;4.32;0.90;;;;;;;19.00;51.26;98591.09;5032425;28;20048;-61
2021/10/03 08:37:33;;;;;;;1.95;0.80;;;;;;;19.00;51.02;98602.53;5032381;28;20394;-62
2021/10/03 08:39:59;;;;;;;3.45;1.00;;;;;;;19.01;51.14;98603.31;5032163;28;20029;-61
2021/10/03 08:42:26;;;;;;;2.53;0.75;;;;;;;19.00;51.24;98602.53;5013506;28;20040;-61
2021/10/03 08:44:51;;;;;;;3.58;1.00;;;;;;;18.97;51.09;98604.88;4999520;28;20046;-59
2021/10/03 08:47:17;;;;;;;6.20;1.10;;;;;;;18.94;51.36;98613.34;5011973;28;20095;-60
2021/10/03 08:49:44;;;;;;;4.32;1.17;;;;;;;18.88;51.53;98609.78;5012184;28;20391;-61
2021/10/03 08:52:10;;;;;;;5.32;1.20;;;;;;;18.79;51.57;98613.94;5011989;28;20033;-60
2021/10/03 08:54:37;;;;;;;4.35;1.30;;;;;;;18.76;51.46;98625.03;5011029;28;20080;-59
2021/10/03 08:57:04;;;;;;;5.78;1.23;;;;;;;18.73;51.54;98618.34;5010524;28;20500;-62
2021/10/03 08:59:30;;;;;;;4.13;1.20;;;;;;;18.72;51.56;98632.69;5010915;28;20038;-59
2021/10/03 09:01:57;;;;;;;7.00;1.48;;;;;;;18.68;51.60;98625.44;5013209;28;20384;-59
2021/10/03 09:04:37;;;;;;;6.07;1.40;;;;;;;18.64;51.34;98634.97;5011356;28;20392;-64
2021/10/03 09:07:10;;;;;;;6.85;1.58;;;;;;;18.63;51.38;98644.78;5011147;28;20487;-59
2021/10/03 09:09:59;;;;;;;6.50;1.30;;;;;;;18.62;51.55;98642.31;4993094;28;20056;-59
2021/10/03 09:12:27;;;;;;;6.15;1.58;;;;;;;18.67;51.62;98663.69;5027784;28;20034;-60
2021/10/03 09:14:54;;;;;;;5.25;1.10;;;;;;;18.67;51.13;98667.13;5030643;28;20037;-60
2021/10/03 09:17:20;;;;;;;6.80;1.30;;;;;;;18.68;51.37;98670.59;5007088;28;20038;-60
2021/10/03 09:20:27;;;;;;;5.00;1.15;;;;;;;18.59;51.00;98685.28;4993443;28;20034;-59
2021/10/03 09:23:09;;;;;;;4.40;1.00;;;;;;;18.62;51.19;98700.72;4948518;29;20144;-63
2021/10/03 09:25:52;;;;;;;4.93;1.00;;;;;;;18.63;50.88;98710.34;5026055;28;20046;-60
2021/10/03 09:28:20;;;;;;;4.90;1.00;;;;;;;18.65;51.25;98703.75;5030680;28;20029;-60
2021/10/03 09:31:08;;;;;;;5.40;1.30;;;;;;;18.66;51.00;98718.66;5029390;28;20501;-60
2021/10/03 09:33:44;;;;;;;6.13;1.40;;;;;;;18.69;50.95;98726.13;5012729;28;20034;-61
2021/10/03 09:36:11;;;;;;;10.48;1.30;;;;;;;18.74;50.97;98720.88;5011316;28;20080;-60
2021/10/03 09:39:07;;;;;;;6.90;1.30;;;;;;;18.73;50.81;98721.94;4993198;28;20558;-60
2021/10/03 09:41:35;;;;;;;5.47;1.10;;;;;;;18.76;51.02;98733.91;5010855;28;20041;-61
2021/10/03 09:44:08;;;;;;;7.40;1.60;;;;;;;18.76;51.11;98733.91;5015851;28;20187;-59
2021/10/03 09:46:42;;;;;;;7.63;1.48;;;;;;;18.80;51.31;98733.22;5030383;28;20037;-60
2021/10/03 09:49:28;;;;;;;6.57;1.42;;;;;;;18.78;50.98;98753.91;5030763;28;20088;-62
2021/10/03 09:51:54;;;;;;;4.03;1.00;;;;;;;18.83;51.12;98761.16;4999417;28;20062;-60
2021/10/03 09:54:22;;;;;;;6.32;1.23;;;;;;;18.84;51.49;98749.47;5009906;28;20033;-59
2021/10/03 09:56:50;;;;;;;7.75;1.55;;;;;;;18.87;51.71;98772.09;5020523;28;20306;-61
2021/10/03 09:59:16;;;;;;;11.65;1.65;;;;;;;18.88;52.32;98784.31;5001666;28;20499;-60
2021/10/03 10:01:46;;;;;;;13.30;1.73;;;;;;;18.89;52.85;98762.81;5012480;28;20550;-61
2021/10/03 10:04:13;;;;;;;10.35;1.80;;;;;;;18.89;53.42;98781.44;5012814;28;20038;-60
2021/10/03 10:06:39;;;;;;;9.05;1.40;;;;;;;18.90;53.96;98792.84;5029440;28;20056;-61
2021/10/03 10:09:11;;;;;;;9.48;1.92;;;;;;;18.89;53.67;98799.22;5030102;28;20072;-59
2021/10/03 10:11:48;;;;;;;11.38;2.25;;;;;;;18.88;53.91;98808.22;5030122;28;20038;-60
2021/10/03 10:14:15;;;;;;;7.68;1.13;;;;;;;18.92;54.12;98812.00;5015038;28;20568;-59
2021/10/03 10:16:47;;;;;;;8.35;1.52;;;;;;;18.92;54.01;98812.81;4993099;28;20048;-60
2021/10/03 10:19:28;;;;;;;12.18;1.65;;;;;;;18.93;53.71;98818.94;5009640;28;20045;-60
2021/10/03 10:22:12;;;;;;;8.55;1.52;;;;;;;18.93;53.88;98825.06;5028205;28;20025;-59
2021/10/03 10:24:43;;;;;;;10.00;2.25;;;;;;;18.97;53.76;98831.53;5010375;28;20414;-59
2021/10/03 10:27:29;;;;;;;8.13;1.75;;;;;;;18.96;53.90;98837.88;5010117;28;20034;-60
2021/10/03 10:30:13;;;;;;;13.45;1.70;;;;;;;18.98;53.95;98849.06;5005275;28;20045;-59
2021/10/03 10:32:59;;;;;;;9.80;1.48;;;;;;;18.99;53.94;98853.34;4991621;28;20046;-62
2021/10/03 10:35:34;;;;;;;9.80;1.60;;;;;;;19.04;53.93;98863.25;5009886;28;20037;-58
2021/10/03 10:38:02;;;;;;;5.80;1.15;;;;;;;19.07;53.59;98854.78;4992657;28;20510;-59
2021/10/03 10:40:31;;;;;;;7.75;1.70;;;;;;;19.07;53.43;98857.44;5009697;28;20227;-58
2021/10/03 10:43:03;;;;;;;7.60;2.20;;;;;;;19.08;53.15;98869.69;5009206;28;20072;-60
2021/10/03 10:45:28;;;;;;;5.88;1.60;;;;;;;19.09;52.93;98880.09;5009851;28;20073;-60
2021/10/03 10:48:09;;;;;;;8.40;1.40;;;;;;;19.02;52.85;98879.44;5006497;28;20072;-59
2021/10/03 10:51:00;;;;;;;12.80;1.92;;;;;;;19.06;53.20;98891.19;4992438;28;20449;-60
2021/10/03 10:53:25;;;;;;;8.75;1.23;;;;;;;19.06;53.14;98893.84;5007170;28;20042;-59
2021/10/03 10:56:15;;;;;;;9.27;1.20;;;;;;;19.01;52.91;98896.41;5006752;28;20034;-60
2021/10/03 10:58:53;;;;;;;5.53;1.30;;;;;;;19.03;53.30;98901.50;5006503;28;20452;-59
2021/10/03 11:01:30;;;;;;;8.90;1.35;;;;;;;19.06;52.78;98901.81;4988580;28;20716;-60
2021/10/03 11:04:07;;;;;;;8.57;1.33;;;;;;;19.07;53.05;98907.94;5006326;28;20442;-59
2021/10/03 11:06:32;;;;;;;7.55;1.60;;;;;;;19.08;52.99;98920.97;5006943;28;20037;-62
2021/10/03 11:09:00;;;;;;;4.20;1.08;;;;;;;19.08;53.24;98928.94;5006798;28;20048;-59
2021/10/03 11:11:28;;;;;;;5.82;1.13;;;;;;;19.10;53.07;98932.19;5006616;28;20034;-60
2021/10/03 11:13:55;;;;;;;8.70;1.40;;;;;;;19.12;53.08;98924.00;5018230;28;20029;-61
2021/10/03 11:16:23;;;;;;;9.77;2.03;;;;;;;19.10;52.95;98923.44;5026296;28;20033;-60
2021/10/03 11:18:50;;;;;;;8.65;0.98;;;;;;;19.13;53.27;98936.22;5026212;28;20034;-61
2021/10/03 11:21:19;;;;;;;3.38;1.10;;;;;;;19.14;53.02;98937.84;5025803;28;20033;-60
2021/10/03 11:23:46;;;;;;;7.55;1.52;;;;;;;19.14;53.11;98946.63;5008300;28;20040;-59
2021/10/03 11:26:11;;;;;;;5.53;1.35;;;;;;;19.13;52.97;98936.22;4995423;28;20123;-59
2021/10/03 11:28:50;;;;;;;5.57;1.30;;;;;;;19.11;53.00;98944.44;5005822;28;20041;-58
2021/10/03 11:31:49;;;;;;;5.10;1.00;;;;;;;19.09;53.31;98954.50;5006759;28;20413;-58
2021/10/03 11:34:54;;;;;;;4.60;1.27;;;;;;;19.08;53.22;98958.19;5006567;28;20137;-58